Time;durP1;ratioP1;P1;durP2;ratioP2;P2;SDS_P1;SDS_P2;PMS_P1;PMS_P2;Temp;Humidity;BMP_temperature;BMP_pressure;BME280_temperature;BME280_humidity;BME280_pressure;Samples;Min_cycle;Max_cycle;Signal;HPM_P1;HPM_P2
2021/12/11 00:01:19;;;;;;;36.53;17.95;;;-2.00;99.90;;;;;;4968163;28;20046;-68
2021/12/11 00:03:54;;;;;;;34.30;17.95;;;-2.00;99.90;;;;;;4934288;28;190437;-69
2021/12/11 00:06:37;;;;;;;35.63;18.02;;;-2.00;99.90;;;;;;4971082;28;20105;-68
2021/12/11 00:09:25;;;;;;;36.95;19.42;;;-2.00;99.90;;;;;;4967897;28;124768;-68
2021/12/11 00:11:59;;;;;;;36.35;18.30;;;-2.00;99.90;;;;;;4948883;28;20413;-68
2021/12/11 00:14:28;;;;;;;34.30;18.17;;;-2.00;99.90;;;;;;4963201;28;193353;-68
2021/12/11 00:16:54;;;;;;;37.55;18.45;;;-2.00;99.90;;;;;;4964418;28;20050;-69
2021/12/11 00:19:27;;;;;;;33.22;17.90;;;-2.10;99.90;;;;;;4952615;28;58735;-69
2021/12/11 00:22:01;;;;;;;35.50;18.05;;;-2.10;99.90;;;;;;4994870;28;20041;-69
2021/12/11 00:24:30;;;;;;;31.02;16.92;;;-2.10;99.90;;;;;;5013389;28;20041;-69
2021/12/11 00:27:10;;;;;;;34.70;17.35;;;-2.10;99.90;;;;;;5022859;28;20052;-70
2021/12/11 00:29:38;;;;;;;34.10;17.65;;;-2.10;99.90;;;;;;5005636;28;191755;-69
2021/12/11 00:32:24;;;;;;;31.42;16.10;;;-2.10;99.90;;;;;;5021890;28;20072;-69
2021/12/11 00:34:53;;;;;;;32.90;16.40;;;-2.10;99.90;;;;;;4990561;28;131043;-69
2021/12/11 00:37:22;;;;;;;32.28;16.25;;;-2.20;99.90;;;;;;5042285;28;20033;-69
2021/12/11 00:40:00;;;;;;;29.83;16.08;;;-2.20;99.90;;;;;;5014488;28;65327;-69
2021/12/11 00:42:33;;;;;;;34.30;15.95;;;-2.20;99.90;;;;;;5041200;28;20513;-71
2021/12/11 00:45:12;;;;;;;34.20;17.52;;;-2.30;99.90;;;;;;5015128;28;71302;-69
2021/12/11 00:48:03;;;;;;;32.63;16.63;;;-2.30;99.90;;;;;;5041854;28;20068;-69
2021/12/11 00:50:33;;;;;;;31.25;16.08;;;-2.20;99.90;;;;;;4990562;28;96752;-69
2021/12/11 00:53:18;;;;;;;33.13;17.05;;;-2.30;99.90;;;;;;5010435;28;20347;-69
2021/12/11 00:55:50;;;;;;;31.23;15.98;;;-2.30;99.90;;;;;;5011531;28;110166;-69
2021/12/11 00:58:24;;;;;;;34.95;17.20;;;-2.30;99.90;;;;;;5025767;28;20078;-69
2021/12/11 01:01:08;;;;;;;32.83;15.88;;;-2.30;99.90;;;;;;4998677;28;20095;-69
2021/12/11 01:03:46;;;;;;;33.13;17.17;;;-2.30;99.90;;;;;;4989381;28;268975;-69
2021/12/11 01:06:51;;;;;;;43.13;20.88;;;-2.30;99.90;;;;;;4991705;28;20053;-69
2021/12/11 01:09:27;;;;;;;43.85;20.58;;;-2.20;99.90;;;;;;4997716;28;194754;-69
2021/12/11 01:12:47;;;;;;;40.13;20.77;;;-2.20;99.90;;;;;;5026687;28;20049;-69
2021/12/11 01:15:26;;;;;;;41.45;20.65;;;-2.10;99.90;;;;;;5010366;28;92130;-68
2021/12/11 01:18:22;;;;;;;38.92;19.27;;;-2.10;99.90;;;;;;5022431;28;20080;-69
2021/12/11 01:21:07;;;;;;;39.80;20.33;;;-2.10;99.90;;;;;;4998206;28;20052;-69
2021/12/11 01:26:10;;;;;;;43.17;19.98;;;-2.20;99.90;;;;;;5023745;28;20429;-69
2021/12/11 01:28:37;;;;;;;40.53;19.90;;;-2.20;99.90;;;;;;5004537;28;271101;-68
2021/12/11 01:31:07;;;;;;;39.75;20.10;;;-2.20;99.90;;;;;;5021250;28;20053;-69
2021/12/11 01:33:33;;;;;;;36.37;18.07;;;-2.20;99.90;;;;;;5004770;28;252451;-68
2021/12/11 01:36:00;;;;;;;39.17;19.73;;;-2.30;99.90;;;;;;5024619;28;20056;-69
2021/12/11 01:38:29;;;;;;;37.33;18.35;;;-2.30;99.90;;;;;;5005590;28;252565;-69
2021/12/11 01:40:59;;;;;;;34.42;17.20;;;-2.30;99.90;;;;;;5021580;28;20049;-69
2021/12/11 01:43:30;;;;;;;34.65;18.02;;;-2.30;99.90;;;;;;5004014;28;273546;-69
2021/12/11 01:45:59;;;;;;;38.22;17.85;;;-2.40;99.90;;;;;;5023896;28;20049;-68
2021/12/11 01:48:32;;;;;;;36.20;17.05;;;-2.40;99.90;;;;;;5001907;28;259946;-69
2021/12/11 01:51:15;;;;;;;35.90;17.85;;;-2.40;99.90;;;;;;5026006;28;20061;-69
2021/12/11 01:53:46;;;;;;;40.20;17.23;;;-2.40;99.90;;;;;;5002237;28;252974;-69
2021/12/11 01:56:18;;;;;;;38.80;17.88;;;-2.40;99.90;;;;;;5028766;28;20056;-68
2021/12/11 01:58:57;;;;;;;41.13;18.17;;;-2.40;99.90;;;;;;5003971;28;255832;-69
2021/12/11 02:01:33;;;;;;;39.45;19.60;;;-2.40;99.90;;;;;;5038415;28;20057;-69
2021/12/11 02:04:00;;;;;;;38.85;19.73;;;-2.40;99.90;;;;;;5005119;28;262720;-69
2021/12/11 02:06:32;;;;;;;35.33;18.42;;;-2.40;99.90;;;;;;5022017;28;20063;-68
2021/12/11 02:08:58;;;;;;;38.13;18.55;;;-2.40;99.90;;;;;;5009837;28;166873;-68
2021/12/11 02:11:29;;;;;;;38.25;18.13;;;-2.40;99.90;;;;;;5024878;28;20053;-69
2021/12/11 02:14:04;;;;;;;38.60;18.05;;;-2.50;99.90;;;;;;5011968;28;39049;-69
2021/12/11 02:16:44;;;;;;;35.90;18.25;;;-2.50;99.90;;;;;;5027966;28;20457;-69
2021/12/11 02:19:18;;;;;;;38.13;19.40;;;-2.50;99.90;;;;;;5030701;28;75431;-69
2021/12/11 02:21:56;;;;;;;34.00;17.33;;;-2.50;99.90;;;;;;5025821;28;20064;-69
2021/12/11 02:24:30;;;;;;;33.28;18.10;;;-2.60;99.90;;;;;;5015555;28;270000;-69
2021/12/11 02:26:56;;;;;;;35.08;18.65;;;-2.60;99.90;;;;;;5019004;28;20048;-68
2021/12/11 02:29:27;;;;;;;38.47;17.83;;;-2.60;99.90;;;;;;4994112;28;123773;-69
2021/12/11 02:31:57;;;;;;;40.83;20.15;;;-2.60;99.90;;;;;;5026147;28;20045;-69
2021/12/11 02:34:34;;;;;;;37.42;18.33;;;-2.60;99.90;;;;;;5025438;28;255721;-69
2021/12/11 02:37:25;;;;;;;39.55;18.00;;;-2.60;99.90;;;;;;5009588;28;20429;-69
2021/12/11 02:39:55;;;;;;;40.83;19.38;;;-2.70;99.90;;;;;;4999953;28;169349;-69
2021/12/11 02:42:43;;;;;;;39.13;20.23;;;-2.70;99.90;;;;;;5010525;28;20766;-69
2021/12/11 02:45:23;;;;;;;36.75;18.63;;;-2.70;99.90;;;;;;4997766;28;134802;-69
2021/12/11 02:48:07;;;;;;;35.00;18.50;;;-2.70;99.90;;;;;;5008993;28;20076;-69
2021/12/11 02:50:44;;;;;;;53.20;24.20;;;-2.70;99.90;;;;;;5028732;28;133322;-69
2021/12/11 02:53:13;;;;;;;57.30;24.55;;;-2.60;99.90;;;;;;5043282;28;20045;-69
2021/12/11 02:55:49;;;;;;;62.05;26.95;;;-2.40;99.90;;;;;;5026212;28;262826;-69
2021/12/11 02:58:22;;;;;;;56.20;24.02;;;-2.30;99.90;;;;;;5024414;28;20080;-69
2021/12/11 03:00:57;;;;;;;45.80;22.92;;;-2.30;99.90;;;;;;5016599;28;20052;-69
2021/12/11 03:03:29;;;;;;;44.05;21.38;;;-2.30;99.90;;;;;;5007555;28;276999;-69
2021/12/11 03:06:16;;;;;;;43.22;20.75;;;-2.30;99.90;;;;;;5015235;28;98167;-71
2021/12/11 03:08:43;;;;;;;37.55;19.17;;;-2.40;99.90;;;;;;5007158;28;256099;-70
2021/12/11 03:11:13;;;;;;;42.00;18.35;;;-2.40;99.90;;;;;;5044562;28;20033;-69
2021/12/11 03:13:44;;;;;;;37.15;18.52;;;-2.50;99.90;;;;;;4993036;28;256628;-69
2021/12/11 03:16:11;;;;;;;36.37;18.83;;;-2.60;99.90;;;;;;5025936;28;20049;-69
2021/12/11 03:18:37;;;;;;;39.15;19.95;;;-2.60;99.90;;;;;;5004566;28;262968;-69
2021/12/11 03:21:04;;;;;;;42.20;20.38;;;-2.60;99.90;;;;;;5033679;28;20041;-70
2021/12/11 03:23:30;;;;;;;44.92;20.70;;;-2.60;99.90;;;;;;4976018;28;255622;-69
2021/12/11 03:25:56;;;;;;;44.72;20.33;;;-2.60;99.90;;;;;;5026185;28;20552;-69
2021/12/11 03:28:23;;;;;;;39.70;20.55;;;-2.60;99.90;;;;;;5031746;28;254386;-69
2021/12/11 03:30:57;;;;;;;38.35;20.63;;;-2.60;99.90;;;;;;5026806;28;20057;-69
2021/12/11 03:33:30;;;;;;;43.25;19.85;;;-2.60;99.90;;;;;;5034382;28;266469;-69
2021/12/11 03:35:57;;;;;;;44.60;20.95;;;-2.60;99.90;;;;;;5044572;28;20044;-70
2021/12/11 03:38:25;;;;;;;42.88;21.80;;;-2.70;99.90;;;;;;5030352;28;273051;-69
2021/12/11 03:40:53;;;;;;;52.28;22.95;;;-2.60;99.90;;;;;;5013944;28;20056;-69
2021/12/11 03:43:23;;;;;;;50.80;24.17;;;-2.50;99.90;;;;;;5010977;28;20509;-69
2021/12/11 03:45:53;;;;;;;55.28;24.33;;;-2.60;99.90;;;;;;5016507;28;20056;-69
2021/12/11 03:48:24;;;;;;;56.38;25.27;;;-2.50;99.90;;;;;;5009678;28;20048;-69
2021/12/11 03:50:50;;;;;;;57.00;26.20;;;-2.40;99.90;;;;;;5016483;28;20080;-69
2021/12/11 03:53:18;;;;;;;55.38;25.83;;;-2.30;99.90;;;;;;5028146;28;20053;-70
2021/12/11 03:55:52;;;;;;;68.32;28.40;;;-2.20;99.90;;;;;;5007125;28;233764;-69
2021/12/11 03:58:19;;;;;;;62.20;28.00;;;-2.20;99.90;;;;;;5010696;28;20060;-69
2021/12/11 04:00:54;;;;;;;61.05;27.92;;;-2.10;99.90;;;;;;4995662;28;140152;-69
2021/12/11 04:03:25;;;;;;;65.05;29.08;;;-2.00;99.90;;;;;;5023494;28;20048;-69
2021/12/11 04:05:53;;;;;;;67.70;29.50;;;-1.90;99.90;;;;;;4969050;28;188060;-69
2021/12/11 04:08:23;;;;;;;73.90;31.02;;;-1.90;99.90;;;;;;5025671;28;20056;-69
2021/12/11 04:10:50;;;;;;;63.47;30.35;;;-1.80;99.90;;;;;;4984183;28;20057;-69
2021/12/11 04:13:17;;;;;;;67.57;30.77;;;-1.80;99.90;;;;;;5024162;28;20045;-69
2021/12/11 04:15:52;;;;;;;66.57;30.45;;;-1.70;99.90;;;;;;5012953;28;116323;-69
2021/12/11 04:18:19;;;;;;;62.33;29.02;;;-1.70;99.90;;;;;;5029209;28;20145;-69
2021/12/11 04:20:47;;;;;;;68.07;29.95;;;-1.80;99.90;;;;;;5031041;28;61185;-70
2021/12/11 04:23:15;;;;;;;70.15;30.63;;;-1.80;99.90;;;;;;5025523;28;20045;-69
2021/12/11 04:25:45;;;;;;;60.03;28.88;;;-1.80;99.90;;;;;;5012264;28;139783;-69
2021/12/11 04:28:12;;;;;;;69.90;30.05;;;-1.80;99.90;;;;;;5041804;28;20073;-69
2021/12/11 04:30:39;;;;;;;65.93;29.38;;;-1.80;99.90;;;;;;4987728;28;243925;-69
2021/12/11 04:33:06;;;;;;;75.00;31.10;;;-1.80;99.90;;;;;;5025633;28;20678;-69
2021/12/11 04:35:33;;;;;;;63.25;30.75;;;-1.80;99.90;;;;;;4990926;28;190968;-70
2021/12/11 04:38:03;;;;;;;64.80;29.70;;;-1.80;99.90;;;;;;5043376;28;20049;-69
2021/12/11 04:40:34;;;;;;;79.57;32.30;;;-1.80;99.90;;;;;;5023152;28;255588;-70
2021/12/11 04:43:11;;;;;;;79.88;32.97;;;-1.70;99.90;;;;;;5022061;28;20045;-69
2021/12/11 04:45:51;;;;;;;87.35;34.58;;;-1.60;99.90;;;;;;5009377;28;128645;-69
2021/12/11 04:54:31;;;;;;;72.70;32.08;;;-1.50;99.90;;;;;;5015257;28;20049;-69
2021/12/11 04:59:53;;;;;;;82.90;33.33;;;-1.50;99.90;;;;;;5010951;28;41377;-69
2021/12/11 05:05:26;;;;;;;58.60;26.45;;;-1.50;99.90;;;;;;5006085;28;269018;-69
2021/12/11 05:08:13;;;;;;;53.92;26.48;;;-1.50;99.90;;;;;;5044237;28;20047;-69
2021/12/11 05:10:52;;;;;;;55.60;26.10;;;-1.60;99.90;;;;;;5027020;28;124734;-69
2021/12/11 05:13:19;;;;;;;54.28;25.63;;;-1.70;99.90;;;;;;5021712;28;20049;-69
2021/12/11 05:15:48;;;;;;;53.25;26.02;;;-1.80;99.90;;;;;;5011776;28;113713;-70
2021/12/11 05:18:20;;;;;;;55.42;26.58;;;-1.80;99.90;;;;;;5041138;28;20050;-69
2021/12/11 05:20:49;;;;;;;53.03;27.00;;;-1.90;99.90;;;;;;5005845;28;247890;-71
2021/12/11 05:23:16;;;;;;;48.80;24.25;;;-1.90;99.90;;;;;;5023189;28;20057;-70
2021/12/11 05:25:44;;;;;;;47.55;22.92;;;-2.00;99.90;;;;;;5014948;28;20060;-69
2021/12/11 05:28:10;;;;;;;49.17;23.83;;;-2.10;99.90;;;;;;5028206;28;20056;-69
2021/12/11 05:30:40;;;;;;;48.45;23.65;;;-2.10;99.90;;;;;;5004608;28;259274;-69
2021/12/11 05:33:06;;;;;;;48.50;24.73;;;-2.20;99.90;;;;;;5008184;28;20053;-69
2021/12/11 05:35:36;;;;;;;49.85;24.70;;;-2.20;99.90;;;;;;5013630;28;76053;-69
2021/12/11 05:38:04;;;;;;;39.85;21.58;;;-2.30;99.90;;;;;;5026064;28;20072;-69
2021/12/11 05:40:33;;;;;;;45.42;22.48;;;-2.30;99.90;;;;;;5022740;28;206787;-69
2021/12/11 05:42:59;;;;;;;50.08;24.65;;;-2.40;99.90;;;;;;5040486;28;20061;-69
2021/12/11 05:45:26;;;;;;;53.05;24.75;;;-2.40;99.90;;;;;;5006572;28;254002;-69
2021/12/11 05:47:53;;;;;;;46.60;23.70;;;-2.50;99.90;;;;;;5025408;28;20053;-69
2021/12/11 05:50:32;;;;;;;53.83;25.60;;;-2.50;99.90;;;;;;5010960;28;247838;-68
2021/12/11 05:53:02;;;;;;;51.72;24.48;;;-2.50;99.90;;;;;;5029353;28;20056;-69
2021/12/11 05:55:30;;;;;;;41.88;22.40;;;-2.40;99.90;;;;;;5026311;28;271695;-70
2021/12/11 05:58:00;;;;;;;47.00;24.13;;;-2.50;99.90;;;;;;5028472;28;20053;-68
2021/12/11 06:00:30;;;;;;;45.30;23.42;;;-2.50;99.90;;;;;;4996721;28;224929;-69
2021/12/11 06:02:57;;;;;;;47.75;23.50;;;-2.60;99.90;;;;;;5025484;28;20502;-68
2021/12/11 06:05:23;;;;;;;50.13;23.48;;;-2.60;99.90;;;;;;4982857;28;157769;-69
2021/12/11 06:07:52;;;;;;;48.05;23.92;;;-2.60;99.90;;;;;;5027924;28;20049;-70
2021/12/11 06:10:19;;;;;;;43.58;21.95;;;-2.60;99.90;;;;;;5026150;28;265133;-68
2021/12/11 06:12:48;;;;;;;45.90;24.20;;;-2.60;99.90;;;;;;5031713;28;20526;-69
2021/12/11 06:15:14;;;;;;;54.53;24.23;;;-2.60;99.90;;;;;;5008358;28;237387;-69
2021/12/11 06:17:43;;;;;;;50.42;24.08;;;-2.60;99.90;;;;;;5010587;28;20064;-69
2021/12/11 06:20:13;;;;;;;46.63;23.30;;;-2.70;99.90;;;;;;4998330;28;89889;-69
2021/12/11 06:22:39;;;;;;;43.58;22.55;;;-2.70;99.90;;;;;;5028061;28;20060;-69
2021/12/11 06:25:13;;;;;;;44.00;23.73;;;-2.80;99.90;;;;;;4998529;28;30877;-69
2021/12/11 06:27:39;;;;;;;44.67;22.13;;;-2.80;99.90;;;;;;5028904;28;20079;-69
2021/12/11 06:30:07;;;;;;;44.40;23.75;;;-2.80;99.90;;;;;;5009379;28;257025;-69
2021/12/11 06:32:34;;;;;;;48.67;23.92;;;-2.80;99.90;;;;;;5042977;28;20502;-69
2021/12/11 06:35:06;;;;;;;43.65;22.70;;;-2.90;99.90;;;;;;5027417;28;260203;-68
2021/12/11 06:37:32;;;;;;;39.65;21.60;;;-2.90;99.90;;;;;;5025972;28;20053;-69
2021/12/11 06:39:59;;;;;;;48.97;23.17;;;-3.00;99.90;;;;;;5026354;28;266462;-68
2021/12/11 06:42:25;;;;;;;43.13;22.55;;;-3.00;99.90;;;;;;5044464;28;20540;-68
2021/12/11 06:44:51;;;;;;;43.85;22.25;;;-3.00;99.90;;;;;;5014169;28;57153;-68
2021/12/11 06:47:17;;;;;;;49.17;23.63;;;-3.00;99.90;;;;;;5045138;28;20048;-68
2021/12/11 06:49:44;;;;;;;44.80;23.25;;;-3.00;99.90;;;;;;5007693;28;187630;-68
2021/12/11 06:52:22;;;;;;;45.80;22.33;;;-3.00;99.90;;;;;;5042065;28;20060;-68
2021/12/11 06:54:49;;;;;;;49.85;23.85;;;-3.00;99.90;;;;;;5014668;28;77841;-69
2021/12/11 06:57:17;;;;;;;48.97;23.10;;;-3.00;99.90;;;;;;5047702;28;20049;-69
2021/12/11 06:59:44;;;;;;;55.08;27.08;;;-3.10;99.90;;;;;;5011449;28;211587;-68
2021/12/11 07:02:10;;;;;;;63.83;31.23;;;-3.00;99.90;;;;;;5028039;28;20548;-68
2021/12/11 07:04:37;;;;;;;74.78;32.78;;;-2.90;99.90;;;;;;4980322;28;239326;-69
2021/12/11 07:07:04;;;;;;;64.75;32.08;;;-2.90;99.90;;;;;;5033705;28;20048;-68
2021/12/11 07:09:31;;;;;;;61.13;29.77;;;-2.80;99.90;;;;;;5013469;28;50624;-69
2021/12/11 07:11:59;;;;;;;55.88;28.25;;;-2.80;99.90;;;;;;5027668;28;20049;-69
2021/12/11 07:14:29;;;;;;;50.80;24.85;;;-2.80;99.90;;;;;;5020828;28;274467;-69
2021/12/11 07:16:56;;;;;;;53.22;25.65;;;-2.80;99.90;;;;;;5026538;28;20076;-69
2021/12/11 07:19:22;;;;;;;48.30;26.20;;;-2.90;99.90;;;;;;5001736;28;218814;-69
2021/12/11 07:21:50;;;;;;;55.83;27.95;;;-2.90;99.90;;;;;;5034504;28;20045;-69
2021/12/11 07:24:20;;;;;;;58.75;28.10;;;-3.00;99.90;;;;;;5009876;28;230493;-69
2021/12/11 07:26:47;;;;;;;48.22;25.27;;;-2.90;99.90;;;;;;5023603;28;20060;-69
2021/12/11 07:29:16;;;;;;;52.58;26.17;;;-3.00;99.90;;;;;;5013551;28;68197;-69
2021/12/11 07:31:45;;;;;;;58.70;27.92;;;-3.00;99.90;;;;;;5042983;28;20049;-69
2021/12/11 07:34:12;;;;;;;64.55;29.63;;;-3.00;99.90;;;;;;5019971;28;268225;-69
2021/12/11 07:36:39;;;;;;;62.20;29.63;;;-3.00;99.90;;;;;;5027953;28;20052;-68
2021/12/11 07:39:10;;;;;;;58.58;27.95;;;-3.00;99.90;;;;;;5008871;28;137891;-69
2021/12/11 07:41:37;;;;;;;59.72;29.10;;;-3.00;99.90;;;;;;5043826;28;20403;-69
2021/12/11 07:44:04;;;;;;;55.75;28.33;;;-3.00;99.90;;;;;;5028248;28;247656;-69
2021/12/11 07:46:31;;;;;;;59.83;28.83;;;-3.00;99.90;;;;;;5042231;28;20045;-68
2021/12/11 07:48:58;;;;;;;55.33;27.05;;;-3.00;99.90;;;;;;5020668;28;258100;-70
2021/12/11 07:51:27;;;;;;;46.03;24.38;;;-3.00;99.90;;;;;;5017645;28;20064;-68
2021/12/11 07:53:54;;;;;;;49.80;25.70;;;-3.00;99.90;;;;;;5013258;28;73632;-68
2021/12/11 07:56:22;;;;;;;54.38;26.17;;;-3.00;99.90;;;;;;5004396;28;20053;-69
2021/12/11 07:58:50;;;;;;;55.17;26.30;;;-3.00;99.90;;;;;;4994532;28;156126;-68
2021/12/11 08:01:17;;;;;;;54.28;26.23;;;-3.10;99.90;;;;;;5023474;28;20053;-68
2021/12/11 08:03:43;;;;;;;49.75;25.00;;;-3.00;99.90;;;;;;4990396;28;259905;-68
2021/12/11 08:06:12;;;;;;;47.28;25.65;;;-3.00;99.90;;;;;;5023170;28;20049;-69
2021/12/11 08:08:40;;;;;;;50.75;26.35;;;-3.00;99.90;;;;;;5000761;28;266897;-69
2021/12/11 08:11:13;;;;;;;51.72;26.20;;;-3.00;99.90;;;;;;5042971;28;20182;-68
2021/12/11 08:13:41;;;;;;;50.13;25.60;;;-3.00;99.90;;;;;;5002170;28;267792;-68
2021/12/11 08:16:07;;;;;;;46.97;24.70;;;-3.00;99.90;;;;;;5014133;28;20505;-68
2021/12/11 08:18:33;;;;;;;50.30;25.83;;;-3.00;99.90;;;;;;4990560;28;278218;-69
2021/12/11 08:21:00;;;;;;;54.70;26.67;;;-3.00;99.90;;;;;;5026849;28;20397;-69
2021/12/11 08:23:26;;;;;;;49.13;26.00;;;-3.00;99.90;;;;;;5005596;28;266190;-69
2021/12/11 08:25:53;;;;;;;48.03;27.05;;;-3.00;99.90;;;;;;5024572;28;20048;-69
2021/12/11 08:28:23;;;;;;;54.78;26.63;;;-3.00;99.90;;;;;;5024385;28;20410;-69
2021/12/11 08:30:51;;;;;;;61.60;29.52;;;-3.00;99.90;;;;;;4995582;28;20041;-69
2021/12/11 08:33:19;;;;;;;58.17;29.42;;;-2.90;99.90;;;;;;5020931;28;20052;-69
2021/12/11 08:35:46;;;;;;;67.68;30.75;;;-2.90;99.90;;;;;;4996626;28;262294;-70
2021/12/11 08:38:13;;;;;;;63.83;30.52;;;-2.80;99.90;;;;;;5008241;28;20053;-70
2021/12/11 08:40:45;;;;;;;67.32;30.67;;;-2.80;99.90;;;;;;5020971;28;261623;-70
2021/12/11 08:43:14;;;;;;;76.45;32.92;;;-2.70;99.90;;;;;;5019607;28;20054;-70
2021/12/11 08:46:08;;;;;;;70.05;32.72;;;-2.70;99.90;;;;;;5006294;28;134247;-69
2021/12/11 08:48:40;;;;;;;75.03;33.55;;;-2.70;99.90;;;;;;5001664;28;259308;-69
2021/12/11 08:51:11;;;;;;;84.65;36.85;;;-2.60;99.90;;;;;;5030254;28;20088;-69
2021/12/11 08:53:37;;;;;;;105.68;43.17;;;-2.50;99.90;;;;;;4997259;28;274833;-70
2021/12/11 08:56:07;;;;;;;106.03;43.95;;;-2.40;99.90;;;;;;5035782;28;20125;-69
2021/12/11 08:58:33;;;;;;;110.53;46.38;;;-2.20;99.90;;;;;;5007705;28;251499;-69
2021/12/11 09:01:26;;;;;;;115.70;48.30;;;-2.10;99.90;;;;;;5015578;28;20053;-69
2021/12/11 09:04:00;;;;;;;124.43;48.55;;;-2.00;99.90;;;;;;4988568;28;208709;-69
2021/12/11 09:06:42;;;;;;;136.27;51.53;;;-1.80;99.90;;;;;;5011215;28;20061;-70
2021/12/11 09:09:11;;;;;;;135.77;52.17;;;-1.60;99.90;;;;;;5010357;28;180096;-70
2021/12/11 09:11:42;;;;;;;143.27;54.85;;;-1.50;99.90;;;;;;5031417;28;20370;-70
2021/12/11 09:14:27;;;;;;;143.93;53.25;;;-1.30;99.90;;;;;;5006971;28;78385;-70
2021/12/11 09:17:08;;;;;;;150.43;56.60;;;-1.10;99.90;;;;;;5010870;28;21205;-70
2021/12/11 09:19:42;;;;;;;144.00;55.15;;;-1.00;99.90;;;;;;5006502;28;187688;-70
2021/12/11 09:22:17;;;;;;;143.82;53.75;;;-0.90;99.90;;;;;;5021684;28;20068;-70
2021/12/11 09:25:07;;;;;;;131.98;52.47;;;-0.80;99.90;;;;;;5007438;28;218383;-71
2021/12/11 09:27:36;;;;;;;137.98;54.97;;;-0.70;99.90;;;;;;5021908;28;20068;-70
2021/12/11 09:30:14;;;;;;;134.23;51.67;;;-0.60;99.90;;;;;;5005239;28;20399;-70
2021/12/11 09:32:54;;;;;;;144.18;55.72;;;-0.50;99.90;;;;;;5025216;28;20053;-70
2021/12/11 09:35:27;;;;;;;135.68;56.10;;;-0.40;99.90;;;;;;4991728;28;75485;-70
2021/12/11 09:38:00;;;;;;;129.68;53.47;;;-0.40;99.90;;;;;;5021116;28;20061;-71
2021/12/11 09:40:39;;;;;;;139.63;55.92;;;-0.30;99.90;;;;;;5017020;28;248081;-70
2021/12/11 09:43:05;;;;;;;129.25;52.20;;;-0.20;99.90;;;;;;5015827;28;20053;-70
2021/12/11 09:45:37;;;;;;;134.38;52.67;;;-0.20;99.90;;;;;;5008609;28;62120;-70
2021/12/11 09:48:15;;;;;;;135.73;54.70;;;-0.20;99.90;;;;;;5022005;28;20060;-71
2021/12/11 09:50:52;;;;;;;132.82;54.42;;;-0.10;99.90;;;;;;4986921;28;228222;-70
2021/12/11 09:53:21;;;;;;;139.60;54.03;;;0.00;99.90;;;;;;5021407;28;20057;-71
2021/12/11 09:55:48;;;;;;;138.50;53.38;;;0.00;99.90;;;;;;5005769;28;20053;-70
2021/12/11 09:58:20;;;;;;;141.73;54.20;;;0.10;99.90;;;;;;5022455;28;20053;-70
2021/12/11 10:01:04;;;;;;;134.82;53.80;;;0.20;99.90;;;;;;5002589;28;84606;-71
2021/12/11 10:03:34;;;;;;;120.93;50.97;;;0.30;99.90;;;;;;4982243;28;265420;-70
2021/12/11 10:06:14;;;;;;;129.38;53.50;;;0.40;99.90;;;;;;4998195;28;20050;-70
2021/12/11 10:08:46;;;;;;;131.95;53.67;;;0.40;99.90;;;;;;4987201;28;265686;-71
2021/12/11 10:11:12;;;;;;;117.28;52.17;;;0.50;99.90;;;;;;5018367;28;20049;-71
2021/12/11 10:13:56;;;;;;;118.00;49.97;;;0.60;99.90;;;;;;5001257;28;247774;-71
2021/12/11 10:16:29;;;;;;;121.38;49.55;;;0.60;99.90;;;;;;5033662;28;20072;-71
2021/12/11 10:18:56;;;;;;;110.50;48.25;;;0.70;99.90;;;;;;5004306;28;97350;-71
2021/12/11 10:21:24;;;;;;;120.45;49.42;;;0.80;99.90;;;;;;5019735;28;20041;-71
2021/12/11 10:23:54;;;;;;;111.82;48.28;;;0.90;99.90;;;;;;5009551;28;90401;-70
2021/12/11 10:26:23;;;;;;;108.95;45.70;;;0.90;99.90;;;;;;5023840;28;20054;-71
2021/12/11 10:28:53;;;;;;;105.82;46.83;;;1.00;99.90;;;;;;4991429;28;127781;-71
2021/12/11 10:31:54;;;;;;;102.13;46.78;;;1.00;99.90;;;;;;5034622;28;20048;-71
2021/12/11 10:34:24;;;;;;;107.78;48.17;;;1.10;99.90;;;;;;4986354;28;167242;-71
2021/12/11 10:37:11;;;;;;;104.00;47.70;;;1.10;99.90;;;;;;4981963;28;20546;-71
2021/12/11 10:39:42;;;;;;;106.22;47.97;;;1.20;99.90;;;;;;4971928;28;189993;-72
2021/12/11 10:42:09;;;;;;;94.63;44.78;;;1.20;99.90;;;;;;4987670;28;20060;-72
2021/12/11 10:44:40;;;;;;;94.57;44.38;;;1.30;99.90;;;;;;4978817;28;24426;-72
2021/12/11 10:47:23;;;;;;;94.10;47.42;;;1.30;99.90;;;;;;5001751;28;20050;-74
2021/12/11 10:49:50;;;;;;;82.35;43.60;;;1.40;99.90;;;;;;4968957;28;136122;-71
2021/12/11 10:52:19;;;;;;;88.13;43.00;;;1.40;99.90;;;;;;4984677;28;20066;-71
2021/12/11 10:54:47;;;;;;;86.97;43.15;;;1.50;99.90;;;;;;4979809;28;147492;-71
2021/12/11 10:57:16;;;;;;;80.40;40.65;;;1.50;99.90;;;;;;4981715;28;20054;-71
2021/12/11 10:59:44;;;;;;;82.32;43.28;;;1.50;99.90;;;;;;4992234;28;83337;-72
2021/12/11 11:02:12;;;;;;;84.30;43.95;;;1.50;99.90;;;;;;5007039;28;20125;-71
2021/12/11 11:04:49;;;;;;;80.95;42.53;;;1.60;99.90;;;;;;4973481;28;226065;-70
2021/12/11 11:07:15;;;;;;;82.05;42.65;;;1.60;99.90;;;;;;5005240;28;20054;-71
2021/12/11 11:09:43;;;;;;;75.95;41.22;;;1.70;99.90;;;;;;4993537;28;118984;-70
2021/12/11 11:12:13;;;;;;;74.72;43.13;;;1.70;99.90;;;;;;5027562;28;20052;-71
2021/12/11 11:14:40;;;;;;;83.28;41.35;;;1.70;99.90;;;;;;5009621;28;179159;-71
2021/12/11 11:17:11;;;;;;;71.28;39.58;;;1.80;99.90;;;;;;5017624;28;20053;-71
2021/12/11 11:19:40;;;;;;;73.13;41.47;;;1.80;99.90;;;;;;5012457;28;251795;-71
2021/12/11 11:22:15;;;;;;;76.60;41.03;;;1.80;99.90;;;;;;5027685;28;20062;-71
2021/12/11 11:24:46;;;;;;;70.57;40.85;;;1.90;99.90;;;;;;5012783;28;42403;-71
2021/12/11 11:27:13;;;;;;;74.95;41.78;;;2.00;99.90;;;;;;5023152;28;20054;-71
2021/12/11 11:29:42;;;;;;;76.53;40.83;;;2.00;99.90;;;;;;5010453;28;203776;-72
2021/12/11 11:32:13;;;;;;;71.57;39.00;;;2.10;99.90;;;;;;5025862;28;20516;-73
2021/12/11 11:34:41;;;;;;;71.47;37.13;;;2.10;99.90;;;;;;5009080;28;46127;-72
2021/12/11 11:37:15;;;;;;;78.18;40.45;;;2.20;99.90;;;;;;5025313;28;20482;-71
2021/12/11 11:39:42;;;;;;;76.55;40.00;;;2.30;99.90;;;;;;5012518;28;268989;-71
2021/12/11 11:42:13;;;;;;;66.45;38.47;;;2.40;99.90;;;;;;5022735;28;20045;-71
2021/12/11 11:44:45;;;;;;;67.07;35.58;;;2.70;99.90;;;;;;5015466;28;272808;-71
2021/12/11 11:47:13;;;;;;;77.25;41.15;;;2.80;99.90;;;;;;5023756;28;20056;-72
2021/12/11 11:49:41;;;;;;;68.85;40.92;;;3.10;99.90;;;;;;5014431;28;257560;-71
2021/12/11 11:52:14;;;;;;;63.58;37.15;;;3.30;99.90;;;;;;5034548;28;20040;-72
2021/12/11 11:54:43;;;;;;;61.20;37.45;;;3.40;99.90;;;;;;4998176;28;266636;-72
2021/12/11 11:57:18;;;;;;;67.38;36.05;;;3.50;99.90;;;;;;5018764;28;20072;-72
2021/12/11 11:59:46;;;;;;;57.22;35.08;;;3.60;99.90;;;;;;5004746;28;275683;-72
2021/12/11 12:02:19;;;;;;;55.63;35.17;;;3.60;99.90;;;;;;5022730;28;20529;-72
2021/12/11 12:04:50;;;;;;;59.50;35.25;;;3.70;99.90;;;;;;5006923;28;257388;-70
2021/12/11 12:07:18;;;;;;;52.72;32.33;;;3.80;99.90;;;;;;5024462;28;20057;-72
2021/12/11 12:09:49;;;;;;;52.70;32.65;;;4.00;99.90;;;;;;4994313;28;250501;-72
2021/12/11 12:12:16;;;;;;;47.30;29.57;;;4.10;99.90;;;;;;5018603;28;20037;-73
2021/12/11 12:14:44;;;;;;;44.30;26.75;;;4.20;99.90;;;;;;5026893;28;50328;-73
2021/12/11 12:17:13;;;;;;;47.67;28.73;;;4.20;99.90;;;;;;5020999;28;20054;-72
2021/12/11 12:19:40;;;;;;;42.92;28.45;;;4.10;99.90;;;;;;5010958;28;98099;-73
2021/12/11 12:22:09;;;;;;;46.40;27.13;;;4.00;99.90;;;;;;5028108;28;20057;-72
2021/12/11 12:24:38;;;;;;;45.17;27.58;;;3.90;99.90;;;;;;5009124;28;246714;-72
2021/12/11 12:27:10;;;;;;;47.50;29.02;;;3.90;99.90;;;;;;5015004;28;20057;-72
2021/12/11 12:29:37;;;;;;;47.95;28.13;;;3.80;99.90;;;;;;4997317;28;113548;-72
2021/12/11 12:32:08;;;;;;;47.53;28.67;;;3.80;99.90;;;;;;5018402;28;20514;-73
2021/12/11 12:34:35;;;;;;;48.88;28.50;;;3.80;99.90;;;;;;4998810;28;237839;-72
2021/12/11 12:37:02;;;;;;;47.95;28.75;;;3.80;99.90;;;;;;5010381;28;20499;-72
2021/12/11 12:39:37;;;;;;;44.63;28.17;;;3.80;99.90;;;;;;5007161;28;258139;-72
2021/12/11 12:42:32;;;;;;;42.90;26.25;;;3.80;99.90;;;;;;5020878;28;20075;-72
2021/12/11 12:45:04;;;;;;;49.83;28.88;;;3.90;99.90;;;;;;4994991;28;198234;-71
2021/12/11 12:47:40;;;;;;;43.95;26.70;;;3.80;99.90;;;;;;5018884;28;20057;-72
2021/12/11 12:50:16;;;;;;;46.75;27.73;;;3.90;99.90;;;;;;4997858;28;89760;-71
2021/12/11 12:52:44;;;;;;;46.03;27.88;;;4.00;99.90;;;;;;5022136;28;20053;-71
2021/12/11 12:55:25;;;;;;;40.72;26.80;;;4.00;99.90;;;;;;5008941;28;113414;-71
2021/12/11 12:57:53;;;;;;;;;;;4.00;99.90;;;;;;5019604;28;20045;-72
2021/12/11 13:00:22;;;;;;;42.80;27.98;;;4.10;99.90;;;;;;4999114;28;134212;-72
2021/12/11 13:02:53;;;;;;;43.20;26.38;;;4.10;99.90;;;;;;5024797;28;20063;-71